Time;durP1;ratioP1;P1;durP2;ratioP2;P2;SDS_P1;SDS_P2;PMS_P1;PMS_P2;Temp;Humidity;BMP_temperature;BMP_pressure;BME280_temperature;BME280_humidity;BME280_pressure;Samples;Min_cycle;Max_cycle;Signal;HPM_P1;HPM_P2
2023/05/30 00:01:07;;;;;;;8.50;2.87;;;11.60;99.90;;;;;;5072383;28;20212;-80
2023/05/30 00:03:35;;;;;;;12.67;3.00;;;11.60;99.90;;;;;;5073326;28;20209;-77
2023/05/30 00:06:02;;;;;;;10.00;3.00;;;11.60;99.90;;;;;;5074001;28;20221;-79
2023/05/30 00:08:29;;;;;;;9.20;3.20;;;11.60;99.90;;;;;;5073285;28;20221;-80
2023/05/30 00:10:56;;;;;;;13.23;3.30;;;11.60;99.90;;;;;;5073907;28;20194;-84
2023/05/30 00:13:22;;;;;;;9.13;2.73;;;11.70;99.90;;;;;;5073557;28;20193;-77
2023/05/30 00:15:51;;;;;;;11.57;2.97;;;11.70;99.90;;;;;;5072906;28;20384;-79
2023/05/30 00:18:22;;;;;;;10.43;3.50;;;11.70;99.90;;;;;;5072919;28;20196;-77
2023/05/30 00:20:49;;;;;;;6.73;2.80;;;11.80;99.90;;;;;;5073653;28;20197;-78
2023/05/30 00:23:16;;;;;;;9.30;3.17;;;11.80;99.90;;;;;;5072783;28;20291;-78
2023/05/30 00:25:45;;;;;;;11.40;2.90;;;11.80;99.90;;;;;;5073023;28;20239;-85
2023/05/30 00:28:12;;;;;;;8.50;3.73;;;11.80;99.90;;;;;;5072381;28;20558;-80
2023/05/30 00:30:39;;;;;;;11.30;3.00;;;11.90;99.90;;;;;;5072469;28;20244;-80
2023/05/30 00:33:06;;;;;;;11.10;3.17;;;11.90;99.90;;;;;;5073032;28;20197;-78
2023/05/30 00:35:34;;;;;;;11.57;3.10;;;11.90;99.90;;;;;;5072961;28;20228;-79
2023/05/30 00:38:01;;;;;;;6.90;3.20;;;12.00;99.90;;;;;;5072743;28;20280;-78
2023/05/30 00:40:28;;;;;;;6.73;3.10;;;12.00;99.90;;;;;;5072987;28;20197;-81
2023/05/30 00:42:55;;;;;;;9.00;3.07;;;12.00;99.90;;;;;;5073280;28;20855;-79
2023/05/30 00:45:22;;;;;;;11.47;3.10;;;12.00;99.90;;;;;;5072520;28;20237;-81
2023/05/30 00:47:51;;;;;;;10.17;3.50;;;12.00;99.90;;;;;;5072674;28;20305;-89
2023/05/30 00:50:19;;;;;;;10.63;3.07;;;12.00;99.90;;;;;;5073115;28;20197;-82
2023/05/30 00:52:48;;;;;;;8.43;2.90;;;12.00;99.90;;;;;;5072064;28;20205;-78
2023/05/30 00:55:15;;;;;;;7.93;2.97;;;12.10;99.90;;;;;;5072343;28;20213;-80
2023/05/30 00:57:42;;;;;;;10.27;3.60;;;12.10;99.90;;;;;;5089849;28;20491;-78
2023/05/30 01:00:12;;;;;;;5.97;2.73;;;12.00;99.90;;;;;;5092985;28;20203;-78
2023/05/30 01:02:40;;;;;;;9.60;3.50;;;12.00;99.90;;;;;;5092542;28;20203;-80
2023/05/30 01:05:07;;;;;;;8.97;3.47;;;12.10;99.90;;;;;;5091371;28;20905;-78
2023/05/30 01:07:35;;;;;;;8.63;3.03;;;12.00;99.90;;;;;;5071997;28;20358;-79
2023/05/30 01:10:03;;;;;;;10.30;3.80;;;12.00;99.90;;;;;;5072492;28;20282;-77
2023/05/30 01:12:38;;;;;;;10.90;3.63;;;12.00;99.90;;;;;;5071669;28;20197;-76
2023/05/30 01:15:11;;;;;;;7.63;2.97;;;12.00;99.90;;;;;;5072542;28;20260;-78
2023/05/30 01:17:49;;;;;;;11.37;3.70;;;12.10;99.90;;;;;;5072348;28;20197;-78
2023/05/30 01:20:18;;;;;;;14.17;3.80;;;12.00;99.90;;;;;;5072034;28;20189;-78
2023/05/30 01:23:00;;;;;;;11.57;3.67;;;12.00;99.90;;;;;;5072498;28;20223;-78
2023/05/30 01:25:41;;;;;;;9.57;3.27;;;12.00;99.90;;;;;;5072044;28;20208;-78
2023/05/30 01:28:12;;;;;;;7.40;3.77;;;12.00;99.90;;;;;;5071837;28;20205;-77
2023/05/30 01:30:43;;;;;;;12.00;3.30;;;12.00;99.90;;;;;;5072218;28;20277;-78
2023/05/30 01:33:11;;;;;;;10.27;3.00;;;11.90;99.90;;;;;;5070885;28;20605;-78
2023/05/30 01:35:38;;;;;;;8.17;3.50;;;12.00;99.90;;;;;;5072153;28;20281;-78
2023/05/30 01:38:05;;;;;;;15.17;4.00;;;12.00;99.90;;;;;;5072020;28;20194;-78
2023/05/30 01:40:32;;;;;;;8.70;3.23;;;12.00;99.90;;;;;;5071352;28;20285;-79
2023/05/30 01:43:08;;;;;;;10.80;3.30;;;11.90;99.90;;;;;;5072408;28;20205;-77
2023/05/30 01:45:51;;;;;;;11.27;3.47;;;11.90;99.90;;;;;;5072082;28;20247;-81
2023/05/30 01:48:25;;;;;;;9.70;3.37;;;11.90;99.90;;;;;;5071679;28;20648;-80
2023/05/30 01:50:53;;;;;;;7.53;3.07;;;11.90;99.90;;;;;;5072085;28;20196;-77
2023/05/30 01:53:31;;;;;;;9.27;3.37;;;11.80;99.90;;;;;;5071930;28;20198;-78
2023/05/30 01:56:00;;;;;;;8.73;3.40;;;11.80;99.90;;;;;;5071290;28;20181;-78
2023/05/30 01:58:29;;;;;;;10.03;3.53;;;11.80;99.90;;;;;;5071958;28;20229;-79
2023/05/30 02:00:58;;;;;;;8.83;3.33;;;11.90;99.90;;;;;;5072484;28;20507;-83
2023/05/30 02:03:25;;;;;;;8.37;3.73;;;11.90;99.90;;;;;;5071688;28;20618;-79
2023/05/30 02:05:52;;;;;;;7.77;3.67;;;11.90;99.90;;;;;;5072122;28;20236;-77
2023/05/30 02:08:19;;;;;;;11.40;3.70;;;12.00;99.90;;;;;;5070748;28;20231;-79
2023/05/30 02:10:47;;;;;;;10.07;4.13;;;11.90;99.90;;;;;;5071714;28;20212;-78
2023/05/30 02:13:14;;;;;;;8.07;3.23;;;11.90;99.90;;;;;;5072122;28;20198;-78
2023/05/30 02:15:40;;;;;;;9.30;3.10;;;11.90;99.90;;;;;;5071346;28;20285;-77
2023/05/30 02:18:10;;;;;;;10.80;3.40;;;11.80;99.90;;;;;;5071750;28;20744;-78
2023/05/30 02:20:37;;;;;;;9.20;3.23;;;11.80;99.90;;;;;;5071918;28;20236;-77
2023/05/30 02:23:04;;;;;;;8.23;3.10;;;11.80;99.90;;;;;;5071217;28;20209;-77
2023/05/30 02:25:30;;;;;;;9.47;3.20;;;11.80;99.90;;;;;;5073943;28;20284;-77
2023/05/30 02:27:57;;;;;;;9.60;3.33;;;11.90;99.90;;;;;;5074896;28;20217;-80
2023/05/30 02:30:24;;;;;;;9.77;3.13;;;11.90;99.90;;;;;;5074429;28;20209;-79
2023/05/30 02:32:51;;;;;;;10.93;2.90;;;11.80;99.90;;;;;;5075570;28;20280;-81
2023/05/30 02:35:20;;;;;;;10.67;3.30;;;11.80;99.90;;;;;;5075420;28;20272;-80
2023/05/30 02:37:47;;;;;;;6.60;3.57;;;11.80;99.90;;;;;;5075594;28;20213;-80
2023/05/30 02:40:14;;;;;;;10.60;3.60;;;11.80;99.90;;;;;;5075035;28;20205;-77
2023/05/30 02:42:41;;;;;;;12.33;3.03;;;11.80;99.90;;;;;;5075194;28;20207;-81
2023/05/30 02:45:08;;;;;;;8.47;3.33;;;11.80;99.90;;;;;;5075005;28;20243;-77
2023/05/30 02:47:35;;;;;;;8.30;3.30;;;11.80;99.90;;;;;;5075104;28;20219;-79
2023/05/30 02:50:02;;;;;;;9.60;3.03;;;11.70;99.90;;;;;;5080009;28;20201;-79
2023/05/30 02:52:31;;;;;;;9.27;3.03;;;11.70;99.90;;;;;;5094354;28;20207;-79
2023/05/30 02:54:58;;;;;;;10.83;3.20;;;11.70;99.90;;;;;;5080023;28;20202;-78
2023/05/30 02:57:25;;;;;;;10.07;3.00;;;11.80;99.90;;;;;;5074338;28;20605;-77
2023/05/30 02:59:52;;;;;;;10.47;3.50;;;11.80;99.90;;;;;;5075046;28;20205;-79
2023/05/30 03:02:19;;;;;;;10.20;3.17;;;11.90;99.90;;;;;;5074966;28;20310;-77
2023/05/30 03:04:46;;;;;;;8.60;3.50;;;11.80;99.90;;;;;;5074464;28;20204;-78
2023/05/30 03:07:17;;;;;;;10.73;3.70;;;11.80;99.90;;;;;;5074240;28;20225;-77
2023/05/30 03:09:45;;;;;;;6.67;3.10;;;11.80;99.90;;;;;;5074163;28;20225;-79
2023/05/30 03:12:12;;;;;;;13.27;4.47;;;11.80;99.90;;;;;;5074142;28;20203;-78
2023/05/30 03:14:39;;;;;;;10.73;3.30;;;11.70;99.90;;;;;;5074639;28;20294;-82
2023/05/30 03:17:06;;;;;;;10.03;3.90;;;11.80;99.90;;;;;;5074888;28;20563;-78
2023/05/30 03:19:33;;;;;;;9.10;3.70;;;11.80;99.90;;;;;;5073823;28;20201;-78
2023/05/30 03:22:01;;;;;;;7.90;3.33;;;11.80;99.90;;;;;;5074338;28;20231;-78
2023/05/30 03:24:29;;;;;;;7.80;3.27;;;11.90;99.90;;;;;;5074101;28;20200;-77
2023/05/30 03:26:57;;;;;;;10.07;3.73;;;11.80;99.90;;;;;;5073562;28;20589;-79
2023/05/30 03:29:24;;;;;;;9.50;3.57;;;11.90;99.90;;;;;;5074594;28;20233;-78
2023/05/30 03:31:51;;;;;;;10.63;3.77;;;11.90;99.90;;;;;;5074217;28;20593;-78
2023/05/30 03:34:18;;;;;;;10.07;3.50;;;11.90;99.90;;;;;;5073673;28;20229;-78
2023/05/30 03:36:45;;;;;;;8.20;3.83;;;11.90;99.90;;;;;;5074211;28;20201;-78
2023/05/30 03:39:12;;;;;;;9.40;2.87;;;11.90;99.90;;;;;;5074527;28;20595;-78
2023/05/30 03:41:40;;;;;;;10.90;3.37;;;11.90;99.90;;;;;;5073678;28;20280;-78
2023/05/30 03:44:08;;;;;;;11.63;3.73;;;11.90;99.90;;;;;;5073860;28;20575;-77
2023/05/30 03:46:35;;;;;;;15.50;4.23;;;11.90;99.90;;;;;;5073601;28;20236;-78
2023/05/30 03:49:02;;;;;;;7.33;3.13;;;11.90;99.90;;;;;;5073479;28;20225;-78
2023/05/30 03:51:29;;;;;;;10.90;3.97;;;11.90;99.90;;;;;;5073929;28;20208;-77
2023/05/30 03:53:56;;;;;;;8.33;3.83;;;11.90;99.90;;;;;;5093350;28;20331;-77
2023/05/30 03:56:23;;;;;;;7.90;3.00;;;11.90;99.90;;;;;;5093941;28;20200;-80
2023/05/30 03:58:50;;;;;;;14.83;5.27;;;11.90;99.90;;;;;;5074679;28;20292;-77
2023/05/30 04:01:18;;;;;;;13.20;4.23;;;11.90;99.90;;;;;;5072641;28;20221;-79
2023/05/30 04:03:45;;;;;;;11.20;3.30;;;11.90;99.90;;;;;;5073231;28;20198;-78
2023/05/30 04:06:12;;;;;;;12.37;3.53;;;11.90;99.90;;;;;;5073632;28;20361;-81
2023/05/30 04:08:40;;;;;;;9.43;3.63;;;11.90;99.90;;;;;;5072856;28;20271;-77
2023/05/30 04:11:07;;;;;;;12.30;3.30;;;11.90;99.90;;;;;;5073321;28;20198;-78
2023/05/30 04:13:35;;;;;;;11.63;3.30;;;11.90;99.90;;;;;;5073479;28;20700;-77
2023/05/30 04:16:03;;;;;;;10.53;3.70;;;12.00;99.90;;;;;;5072704;28;20235;-78
2023/05/30 04:18:31;;;;;;;14.37;3.23;;;12.00;99.90;;;;;;5087880;28;20200;-78
2023/05/30 04:20:58;;;;;;;10.13;3.40;;;12.00;99.90;;;;;;5085437;28;20287;-78
2023/05/30 04:23:25;;;;;;;13.33;3.83;;;12.00;99.90;;;;;;5072467;28;20197;-79
2023/05/30 04:25:53;;;;;;;8.97;3.50;;;12.00;99.90;;;;;;5073255;28;20197;-79
2023/05/30 04:28:21;;;;;;;6.80;3.33;;;12.10;99.90;;;;;;5073191;28;20221;-76
2023/05/30 04:30:49;;;;;;;9.93;3.27;;;12.10;99.90;;;;;;5072415;28;20258;-78
2023/05/30 04:33:16;;;;;;;12.13;4.07;;;12.10;99.90;;;;;;5073282;28;20496;-85
2023/05/30 04:35:47;;;;;;;10.67;3.13;;;12.10;99.90;;;;;;5072969;28;20515;-77
2023/05/30 04:38:19;;;;;;;12.17;3.63;;;12.10;99.90;;;;;;5073133;28;20201;-78
2023/05/30 04:40:48;;;;;;;16.03;3.97;;;12.10;99.90;;;;;;5072780;28;20205;-79
2023/05/30 04:43:15;;;;;;;9.87;3.53;;;12.10;99.90;;;;;;5071895;28;20501;-77
2023/05/30 04:45:43;;;;;;;9.90;3.50;;;12.20;99.90;;;;;;5073073;28;20276;-78
2023/05/30 04:48:10;;;;;;;10.17;3.43;;;12.10;99.90;;;;;;5054729;28;20200;-79
2023/05/30 04:50:38;;;;;;;10.37;3.50;;;12.10;99.90;;;;;;5052037;28;20561;-77
2023/05/30 04:53:06;;;;;;;11.57;3.70;;;12.20;99.90;;;;;;5052860;28;20771;-77
2023/05/30 04:55:34;;;;;;;14.23;3.80;;;12.20;99.90;;;;;;5052772;28;20289;-78
2023/05/30 04:58:03;;;;;;;13.83;3.50;;;12.30;99.90;;;;;;5051981;28;20255;-80
2023/05/30 05:00:30;;;;;;;10.40;4.00;;;12.20;99.90;;;;;;5052835;28;20216;-80
2023/05/30 05:02:56;;;;;;;7.67;3.20;;;12.30;99.90;;;;;;5067169;28;20406;-78
2023/05/30 05:05:23;;;;;;;10.33;3.43;;;12.40;99.90;;;;;;5071231;28;20199;-76
2023/05/30 05:07:50;;;;;;;11.70;3.27;;;12.40;99.90;;;;;;5072196;28;20217;-78
2023/05/30 05:10:19;;;;;;;6.60;3.27;;;12.30;99.90;;;;;;5062977;28;20221;-77
2023/05/30 05:12:46;;;;;;;9.50;3.60;;;12.40;99.90;;;;;;5051920;28;20197;-77
2023/05/30 05:15:13;;;;;;;11.93;3.83;;;12.40;99.90;;;;;;5052143;28;20616;-77
2023/05/30 05:17:40;;;;;;;13.00;4.03;;;12.50;99.90;;;;;;5070435;28;20205;-78
2023/05/30 05:20:08;;;;;;;9.77;3.60;;;12.50;99.90;;;;;;5071461;28;20489;-76
2023/05/30 05:22:36;;;;;;;12.27;3.30;;;12.60;99.90;;;;;;5072040;28;20193;-78
2023/05/30 05:25:03;;;;;;;12.60;3.43;;;12.60;99.90;;;;;;5070552;28;20201;-78
2023/05/30 05:27:31;;;;;;;13.93;3.83;;;12.70;99.90;;;;;;5071988;28;20224;-77
2023/05/30 05:29:58;;;;;;;10.87;3.53;;;12.80;99.90;;;;;;5070903;28;20222;-76
2023/05/30 05:32:25;;;;;;;9.60;3.47;;;12.90;99.90;;;;;;5071476;28;20666;-77
2023/05/30 05:34:52;;;;;;;11.37;4.13;;;12.90;99.90;;;;;;5072023;28;20559;-78
2023/05/30 05:37:19;;;;;;;10.23;4.10;;;12.80;99.90;;;;;;5072017;28;20276;-77
2023/05/30 05:39:45;;;;;;;12.70;3.53;;;12.90;99.90;;;;;;5070550;28;20205;-77
2023/05/30 05:42:12;;;;;;;11.40;3.70;;;12.80;99.90;;;;;;5071833;28;20202;-77
2023/05/30 05:44:40;;;;;;;12.97;4.13;;;12.90;99.90;;;;;;5071505;28;20237;-77
2023/05/30 05:47:08;;;;;;;12.17;4.03;;;12.90;99.90;;;;;;5071222;28;20229;-77
2023/05/30 05:49:35;;;;;;;8.37;3.37;;;12.90;99.90;;;;;;5071949;28;20217;-78
2023/05/30 05:52:02;;;;;;;13.20;4.23;;;13.00;99.90;;;;;;5071746;28;20197;-80
2023/05/30 05:54:28;;;;;;;9.87;4.30;;;13.00;99.90;;;;;;5071491;28;20276;-78
2023/05/30 05:56:55;;;;;;;11.80;4.00;;;13.00;99.90;;;;;;5072065;28;20208;-77
2023/05/30 05:59:22;;;;;;;17.07;4.00;;;13.00;99.90;;;;;;5074239;28;20267;-78
2023/05/30 06:01:51;;;;;;;12.73;3.30;;;13.00;99.90;;;;;;5074906;28;20934;-76
2023/05/30 06:04:18;;;;;;;10.73;3.73;;;13.00;99.90;;;;;;5075753;28;20284;-78
2023/05/30 06:06:45;;;;;;;11.77;3.40;;;13.10;99.90;;;;;;5075883;28;20338;-78
2023/05/30 06:09:12;;;;;;;10.47;3.73;;;13.10;99.90;;;;;;5075066;28;20892;-76
2023/05/30 06:11:39;;;;;;;11.63;3.73;;;13.10;99.90;;;;;;5083950;28;20287;-77
2023/05/30 06:14:06;;;;;;;9.03;3.70;;;13.20;99.90;;;;;;5096275;28;20219;-80
2023/05/30 06:16:32;;;;;;;12.50;4.77;;;13.20;99.90;;;;;;5095358;28;20208;-77
2023/05/30 06:19:01;;;;;;;13.47;4.10;;;13.20;99.90;;;;;;5094093;28;20196;-78
2023/05/30 06:21:28;;;;;;;11.57;3.17;;;13.20;99.90;;;;;;5095014;28;20292;-76
2023/05/30 06:23:54;;;;;;;12.40;3.83;;;13.30;99.90;;;;;;5095946;28;20208;-76
2023/05/30 06:26:21;;;;;;;11.30;3.37;;;13.30;99.90;;;;;;5094101;28;20199;-75
2023/05/30 06:28:49;;;;;;;9.30;3.20;;;13.40;99.90;;;;;;5094723;28;20216;-77
2023/05/30 06:31:16;;;;;;;11.57;4.10;;;13.50;99.90;;;;;;5095576;28;20196;-76
2023/05/30 06:33:43;;;;;;;13.57;3.67;;;13.50;99.90;;;;;;5089283;28;20280;-77
2023/05/30 06:36:12;;;;;;;16.07;4.00;;;13.50;99.90;;;;;;5077095;28;20218;-76
2023/05/30 06:38:38;;;;;;;13.70;4.00;;;13.50;99.90;;;;;;5077628;28;20202;-78
2023/05/30 06:41:05;;;;;;;13.83;4.90;;;13.60;99.90;;;;;;5074869;28;20283;-77
2023/05/30 06:43:32;;;;;;;11.97;3.47;;;13.60;99.90;;;;;;5074158;28;20284;-77
2023/05/30 06:46:00;;;;;;;7.07;3.17;;;13.70;99.90;;;;;;5075366;28;20219;-77
2023/05/30 06:48:27;;;;;;;11.50;3.70;;;13.80;99.90;;;;;;5074659;28;20570;-77
2023/05/30 06:50:54;;;;;;;10.77;3.53;;;13.80;99.90;;;;;;5074039;28;20637;-78
2023/05/30 06:53:22;;;;;;;10.50;3.40;;;13.90;99.90;;;;;;5075283;28;20675;-78
2023/05/30 06:55:49;;;;;;;10.20;3.90;;;13.90;99.90;;;;;;5074703;28;20521;-76
2023/05/30 06:58:16;;;;;;;9.17;4.10;;;13.90;99.90;;;;;;5074083;28;20280;-77
2023/05/30 07:00:43;;;;;;;7.63;3.70;;;14.00;99.90;;;;;;5072414;28;20277;-77
2023/05/30 07:03:10;;;;;;;10.70;3.57;;;14.00;99.90;;;;;;5074250;28;20193;-78
2023/05/30 07:05:37;;;;;;;9.50;2.80;;;14.00;99.90;;;;;;5087690;28;20212;-78
2023/05/30 07:08:04;;;;;;;10.17;3.30;;;14.10;99.90;;;;;;5086035;28;20211;-78
2023/05/30 07:10:33;;;;;;;11.57;4.03;;;14.10;99.90;;;;;;5086713;28;20303;-78
2023/05/30 07:13:00;;;;;;;11.10;3.43;;;14.20;99.90;;;;;;5094632;28;20205;-76
2023/05/30 07:15:29;;;;;;;9.57;3.73;;;14.20;99.90;;;;;;5093475;28;20204;-80
2023/05/30 07:17:56;;;;;;;8.37;2.93;;;14.20;99.90;;;;;;5073585;28;20205;-78
2023/05/30 07:20:23;;;;;;;9.53;3.53;;;14.30;99.90;;;;;;5086069;28;20284;-79
2023/05/30 07:22:50;;;;;;;9.53;2.73;;;14.30;99.90;;;;;;5094692;28;20207;-79
2023/05/30 07:25:17;;;;;;;6.40;2.50;;;14.30;99.90;;;;;;5086441;28;20284;-77
2023/05/30 07:27:46;;;;;;;11.77;3.00;;;14.20;99.90;;;;;;5074488;28;20193;-82
2023/05/30 07:30:13;;;;;;;10.37;3.43;;;14.20;99.90;;;;;;5073667;28;20336;-79
2023/05/30 07:32:39;;;;;;;8.63;3.67;;;14.20;99.90;;;;;;5073346;28;20289;-78
2023/05/30 07:35:07;;;;;;;6.63;3.30;;;14.10;99.90;;;;;;5082411;28;20201;-80
2023/05/30 07:37:36;;;;;;;10.30;3.20;;;14.20;99.90;;;;;;5081755;28;20217;-79
2023/05/30 07:40:05;;;;;;;6.33;2.80;;;14.20;99.90;;;;;;5073115;28;20204;-78
2023/05/30 07:42:32;;;;;;;7.07;3.20;;;14.20;99.90;;;;;;5073414;28;20213;-79
2023/05/30 07:45:00;;;;;;;6.30;2.67;;;14.30;99.90;;;;;;5073589;28;20217;-78
2023/05/30 07:47:28;;;;;;;6.23;2.73;;;14.30;99.90;;;;;;5089121;28;20209;-77
2023/05/30 07:49:55;;;;;;;8.60;2.73;;;14.30;99.90;;;;;;5073845;28;20259;-78
2023/05/30 07:52:22;;;;;;;6.47;2.77;;;14.20;99.90;;;;;;5073986;28;20224;-79
2023/05/30 07:54:49;;;;;;;8.07;2.63;;;14.30;99.90;;;;;;5073035;28;20209;-83
2023/05/30 07:57:16;;;;;;;9.40;2.23;;;14.30;99.90;;;;;;5073858;28;20209;-79
2023/05/30 07:59:43;;;;;;;6.07;2.30;;;14.30;99.90;;;;;;5073607;28;20236;-80
2023/05/30 08:02:11;;;;;;;11.03;3.03;;;14.30;99.90;;;;;;5073273;28;20206;-85
2023/05/30 08:04:38;;;;;;;6.10;2.70;;;14.30;99.90;;;;;;5091388;28;20307;-80
2023/05/30 08:07:06;;;;;;;4.90;2.20;;;14.20;99.90;;;;;;5093464;28;20342;-81
2023/05/30 08:09:33;;;;;;;5.13;2.57;;;14.20;99.90;;;;;;5093227;28;20223;-80
2023/05/30 08:12:01;;;;;;;5.83;2.40;;;14.30;99.90;;;;;;5083826;28;20791;-80
2023/05/30 08:14:28;;;;;;;4.63;2.53;;;14.40;99.90;;;;;;5072743;28;20379;-80
2023/05/30 08:16:56;;;;;;;4.60;2.40;;;14.30;99.90;;;;;;5072923;28;20231;-80
2023/05/30 08:19:24;;;;;;;6.70;2.70;;;14.20;99.90;;;;;;5072194;28;20201;-79
2023/05/30 08:21:51;;;;;;;6.87;2.87;;;14.30;99.90;;;;;;5071271;28;20285;-81
2023/05/30 08:24:18;;;;;;;5.63;2.57;;;14.30;99.90;;;;;;5072702;28;20256;-80
2023/05/30 08:26:48;;;;;;;5.07;2.47;;;14.20;99.90;;;;;;5079351;28;20215;-82
2023/05/30 08:29:15;;;;;;;5.53;2.33;;;14.20;99.90;;;;;;5072834;28;20208;-81
2023/05/30 08:31:42;;;;;;;7.20;2.67;;;14.20;99.90;;;;;;5091245;28;20196;-80
2023/05/30 08:34:09;;;;;;;5.27;2.87;;;14.20;99.90;;;;;;5086252;28;20223;-81
2023/05/30 08:36:37;;;;;;;5.07;2.60;;;14.10;99.90;;;;;;5086333;28;20204;-81
2023/05/30 08:39:04;;;;;;;6.40;2.60;;;14.10;99.90;;;;;;5088475;28;20204;-79
2023/05/30 08:41:31;;;;;;;5.73;3.23;;;14.00;99.90;;;;;;5084391;28;20209;-81
2023/05/30 08:43:58;;;;;;;8.30;3.27;;;14.00;99.90;;;;;;5091269;28;20250;-82
2023/05/30 08:46:26;;;;;;;6.73;2.97;;;14.00;99.90;;;;;;5076416;28;20205;-79
2023/05/30 08:48:54;;;;;;;8.07;2.87;;;14.10;99.90;;;;;;5073055;28;20204;-84
2023/05/30 08:51:23;;;;;;;12.37;3.10;;;14.20;99.90;;;;;;5074154;28;20707;-80
2023/05/30 08:53:57;;;;;;;7.60;3.00;;;14.10;99.90;;;;;;5074756;28;20212;-81
2023/05/30 08:56:29;;;;;;;4.43;2.77;;;14.10;99.90;;;;;;5072351;28;20548;-81
2023/05/30 08:58:58;;;;;;;5.67;2.63;;;14.20;99.90;;;;;;5091666;28;20270;-80
2023/05/30 09:01:26;;;;;;;5.97;2.60;;;14.20;99.90;;;;;;5090658;28;20608;-83
2023/05/30 09:03:53;;;;;;;5.00;3.27;;;14.30;99.90;;;;;;5080036;28;20597;-82
2023/05/30 09:06:21;;;;;;;5.73;3.03;;;14.20;99.90;;;;;;5071842;28;20231;-80
2023/05/30 09:08:51;;;;;;;6.23;2.93;;;14.20;99.90;;;;;;5053474;28;20209;-79
2023/05/30 09:11:21;;;;;;;5.40;3.27;;;14.10;99.90;;;;;;5070599;28;20233;-80
2023/05/30 09:13:48;;;;;;;6.63;3.23;;;14.20;99.90;;;;;;5071788;28;20237;-82
2023/05/30 09:16:15;;;;;;;5.90;3.53;;;14.20;99.90;;;;;;5072121;28;20212;-80
2023/05/30 09:18:42;;;;;;;5.77;3.20;;;14.10;99.90;;;;;;5071917;28;20204;-80
2023/05/30 09:21:10;;;;;;;5.13;2.67;;;14.10;99.90;;;;;;5071311;28;20229;-81
2023/05/30 09:23:37;;;;;;;5.70;2.70;;;14.10;99.90;;;;;;5071267;28;20288;-81
2023/05/30 09:26:07;;;;;;;7.33;2.63;;;14.10;99.90;;;;;;5071284;28;20209;-80
2023/05/30 09:28:36;;;;;;;3.03;2.47;;;14.20;99.90;;;;;;5071547;28;20296;-78
2023/05/30 09:31:04;;;;;;;5.57;2.67;;;14.10;99.90;;;;;;5071278;28;20327;-81
2023/05/30 09:33:42;;;;;;;7.00;2.93;;;14.20;99.90;;;;;;5070464;28;20229;-78
2023/05/30 09:36:12;;;;;;;4.50;2.90;;;14.30;99.90;;;;;;5072100;28;20212;-83
2023/05/30 09:38:39;;;;;;;7.07;2.43;;;14.30;99.90;;;;;;5072480;28;20217;-83
2023/05/30 09:41:06;;;;;;;4.37;2.57;;;14.30;99.90;;;;;;5073112;28;20765;-85
2023/05/30 09:43:34;;;;;;;3.97;2.70;;;14.30;99.90;;;;;;5072620;28;20216;-82
2023/05/30 09:46:04;;;;;;;6.97;2.77;;;14.30;99.90;;;;;;5071412;28;20200;-82
2023/05/30 09:48:31;;;;;;;4.03;2.07;;;14.30;99.90;;;;;;5082146;28;20284;-79
2023/05/30 09:51:01;;;;;;;5.50;2.67;;;14.30;99.90;;;;;;5092108;28;20228;-81
2023/05/30 09:53:31;;;;;;;4.57;1.80;;;14.40;99.90;;;;;;5090982;28;20535;-81
2023/05/30 09:55:58;;;;;;;5.33;2.20;;;14.40;99.90;;;;;;5092283;28;20208;-80
2023/05/30 09:58:25;;;;;;;4.50;2.20;;;14.50;99.90;;;;;;5092941;28;20538;-80
2023/05/30 10:00:53;;;;;;;3.67;2.07;;;14.50;99.90;;;;;;5075561;28;20209;-83
2023/05/30 10:03:22;;;;;;;2.97;2.13;;;14.60;99.90;;;;;;5072447;28;20211;-83
2023/05/30 10:05:49;;;;;;;4.03;2.30;;;14.70;99.90;;;;;;5071912;28;20570;-81
2023/05/30 10:08:17;;;;;;;2.97;1.93;;;14.60;99.90;;;;;;5070729;28;20205;-79
2023/05/30 10:10:44;;;;;;;5.73;2.20;;;14.70;99.90;;;;;;5071216;28;20574;-81
2023/05/30 10:13:11;;;;;;;2.77;2.30;;;14.60;99.90;;;;;;5072164;28;20213;-78
2023/05/30 10:15:38;;;;;;;2.83;1.83;;;14.60;99.90;;;;;;5071073;28;20208;-79
2023/05/30 10:18:08;;;;;;;4.10;1.80;;;14.50;99.90;;;;;;5072279;28;20201;-79
2023/05/30 10:20:38;;;;;;;5.00;2.10;;;14.60;99.90;;;;;;5071282;28;20201;-79
2023/05/30 10:23:07;;;;;;;5.17;2.20;;;14.70;99.90;;;;;;5071674;28;20322;-82
2023/05/30 10:25:36;;;;;;;3.03;1.93;;;14.70;99.90;;;;;;5072295;28;20197;-79
2023/05/30 10:28:06;;;;;;;3.97;1.50;;;14.80;99.90;;;;;;5071107;28;20201;-78
2023/05/30 10:30:34;;;;;;;1.80;1.53;;;14.80;99.90;;;;;;5070789;28;20235;-77
2023/05/30 10:33:04;;;;;;;1.80;1.60;;;14.90;99.90;;;;;;5071667;28;20228;-78
2023/05/30 10:35:32;;;;;;;2.10;1.43;;;15.00;99.90;;;;;;5070943;28;20208;-76
2023/05/30 10:38:01;;;;;;;3.20;1.30;;;15.10;99.90;;;;;;5071772;28;20205;-83
2023/05/30 10:40:44;;;;;;;2.72;1.67;;;15.30;99.90;;;;;;5071031;28;20232;-78
2023/05/30 10:43:25;;;;;;;2.75;1.17;;;15.30;99.90;;;;;;5071116;28;20240;-78
2023/05/30 10:46:02;;;;;;;2.27;1.10;;;15.30;99.90;;;;;;5072610;28;20633;-79
2023/05/30 10:48:43;;;;;;;1.23;1.00;;;15.30;99.90;;;;;;5074484;28;20232;-79
2023/05/30 10:51:10;;;;;;;0.90;0.80;;;15.30;99.90;;;;;;5074811;28;20236;-79
2023/05/30 10:53:42;;;;;;;1.47;1.20;;;15.30;99.90;;;;;;5075392;28;20371;-79
2023/05/30 10:56:39;;;;;;;1.87;1.00;;;15.40;99.90;;;;;;5074161;28;20190;-79
2023/05/30 10:59:13;;;;;;;1.55;1.45;;;15.50;99.90;;;;;;5085999;28;20255;-80
2023/05/30 11:01:40;;;;;;;2.65;1.25;;;15.60;99.90;;;;;;5075031;28;20514;-78
2023/05/30 11:04:11;;;;;;;2.58;1.10;;;15.50;99.90;;;;;;5074657;28;20201;-78
2023/05/30 11:06:42;;;;;;;1.90;1.07;;;15.40;99.90;;;;;;5074670;28;20221;-79
2023/05/30 11:09:12;;;;;;;1.35;1.00;;;15.40;99.90;;;;;;5075089;28;20205;-85
2023/05/30 11:11:40;;;;;;;3.03;1.23;;;15.50;99.90;;;;;;5073628;28;20225;-80
2023/05/30 11:14:08;;;;;;;1.65;1.20;;;15.50;99.90;;;;;;5074974;28;20207;-80
2023/05/30 11:16:48;;;;;;;3.13;1.25;;;15.70;99.90;;;;;;5075243;28;20185;-80
2023/05/30 11:19:15;;;;;;;1.80;1.00;;;15.90;99.90;;;;;;5075241;28;20230;-84
2023/05/30 11:21:59;;;;;;;1.45;0.98;;;16.00;99.90;;;;;;5075283;28;20585;-78
2023/05/30 11:24:29;;;;;;;2.30;1.17;;;15.90;99.90;;;;;;5075130;28;20189;-82
2023/05/30 11:26:58;;;;;;;1.88;0.90;;;16.00;99.90;;;;;;5075149;28;20197;-79
2023/05/30 11:29:36;;;;;;;2.30;1.00;;;15.80;99.90;;;;;;5081347;28;20305;-79
2023/05/30 11:32:06;;;;;;;1.00;0.95;;;15.70;99.90;;;;;;5094927;28;20269;-84
2023/05/30 11:34:33;;;;;;;1.88;1.05;;;15.70;99.90;;;;;;5086613;28;20198;-80
2023/05/30 11:37:00;;;;;;;1.88;0.75;;;15.70;99.90;;;;;;5075937;28;20200;-78
2023/05/30 11:39:31;;;;;;;2.47;1.02;;;15.60;99.90;;;;;;5075137;28;20193;-82
2023/05/30 11:41:59;;;;;;;1.95;1.20;;;15.70;99.90;;;;;;5088370;28;20216;-83
2023/05/30 11:44:26;;;;;;;1.52;0.90;;;15.60;99.90;;;;;;5095029;28;20250;-80
2023/05/30 11:47:04;;;;;;;1.13;1.10;;;15.70;99.90;;;;;;5081445;28;20606;-82
2023/05/30 11:49:32;;;;;;;2.00;1.02;;;15.90;99.90;;;;;;5075797;28;20230;-81
2023/05/30 11:51:59;;;;;;;0.82;0.70;;;15.90;99.90;;;;;;5085167;28;20288;-80
2023/05/30 11:54:26;;;;;;;5.65;1.27;;;16.00;99.90;;;;;;5091006;28;20310;-83
2023/05/30 11:56:56;;;;;;;1.33;1.17;;;16.00;99.90;;;;;;5086635;28;20232;-82
2023/05/30 11:59:24;;;;;;;2.30;1.13;;;15.90;99.90;;;;;;5073943;28;20219;-82
2023/05/30 12:01:53;;;;;;;1.30;1.00;;;15.90;99.90;;;;;;5073404;28;20194;-80
2023/05/30 12:04:25;;;;;;;1.55;1.20;;;15.90;99.90;;;;;;5073689;28;20193;-80
2023/05/30 12:06:52;;;;;;;1.35;1.00;;;15.90;99.90;;;;;;5073388;28;20298;-82
2023/05/30 12:09:20;;;;;;;3.25;0.90;;;15.70;99.90;;;;;;5086188;28;20285;-78
2023/05/30 12:11:57;;;;;;;1.35;1.10;;;15.70;99.90;;;;;;5092197;28;20326;-79
2023/05/30 12:14:37;;;;;;;2.42;1.20;;;15.60;99.90;;;;;;5073242;28;20185;-78
2023/05/30 12:17:12;;;;;;;4.75;1.80;;;15.60;99.90;;;;;;5073283;28;20289;-78
2023/05/30 12:19:40;;;;;;;5.07;1.40;;;15.60;99.90;;;;;;5073442;28;20200;-78
2023/05/30 12:22:08;;;;;;;2.65;1.45;;;15.80;99.90;;;;;;5073171;28;20304;-78
2023/05/30 12:24:37;;;;;;;1.60;1.40;;;15.80;99.90;;;;;;5073415;28;20197;-81
2023/05/30 12:27:06;;;;;;;5.03;1.58;;;15.80;99.90;;;;;;5072525;28;20547;-79
2023/05/30 12:29:34;;;;;;;4.70;1.40;;;15.60;99.90;;;;;;5073088;28;20204;-80
2023/05/30 12:32:02;;;;;;;3.35;1.42;;;15.70;99.90;;;;;;5073038;28;20311;-77
2023/05/30 12:34:39;;;;;;;1.77;1.40;;;15.70;99.90;;;;;;5072354;28;20601;-76
2023/05/30 12:37:11;;;;;;;1.88;1.50;;;15.80;99.90;;;;;;5073464;28;20288;-80
2023/05/30 12:39:45;;;;;;;1.45;1.25;;;15.80;99.90;;;;;;5073047;28;20259;-82
2023/05/30 12:42:14;;;;;;;1.65;1.10;;;15.80;99.90;;;;;;5072658;28;20189;-80
2023/05/30 12:44:49;;;;;;;1.77;1.30;;;15.90;99.90;;;;;;5073122;28;20598;-79
2023/05/30 12:47:16;;;;;;;4.43;1.60;;;15.90;99.90;;;;;;5080860;28;20277;-79
2023/05/30 12:49:44;;;;;;;3.67;1.52;;;16.00;99.90;;;;;;5092577;28;20228;-80